Automated Weather Station

Magsaysay, Infanta, Quezon


Readings

as of November 11, 2016 04:01 PM
Wind Speed
3.4 mm
Rainfall Amount
0.14 mm
Rainfall Intensity
11.3 mm
Air Temperature
mm
Wind Direction
96 mm
Air Humidity
97.7 mm

Data Source: PREDICT (Advanced Science and Technology Institute)

12 HOUR DATA

PREVIOUS DATA

From
To
DateTime Wind Speed Rain Amount Rain Intensity Air Temperature Air Pressure Wind Direction Air Humidity
October 18, 2016 07:01 AM 4.8 0 mm 0 24.7 927.24 349 88.2
October 18, 2016 06:01 AM 1.1 0 mm 0 22.3 926.97 83 95.7
October 18, 2016 05:01 AM 1.2 0 mm 0 21.9 926.43 71 95.5
October 18, 2016 04:01 AM 2.1 0 mm 0 21.8 925.77 339 96.5
October 18, 2016 03:02 AM 1.7 0 mm 0 21.5 925.63 275 98.2
October 18, 2016 02:01 AM 1.4 0 mm 0 21.5 925.77 349 99.1
October 18, 2016 01:01 AM 2.4 0 mm 0 22.1 925.9 34 99.3
October 18, 2016 12:01 AM 0 0 mm 0 22.4 926.3 0 99.2
October 17, 2016 11:01 PM 3.6 0 mm 0 22.2 927.1 91 98.9
October 17, 2016 10:01 PM 1.1 0 mm 0 22.2 927.5 15 98.9
October 17, 2016 09:02 PM 0 0 mm 0 22.7 927.5 0 99.3
October 17, 2016 07:01 PM 1.8 0 mm 0.6 22.3 926.97 70 96.7
October 17, 2016 06:01 PM 3.3 0 mm 0 22.6 927.24 245 88.1
October 17, 2016 05:01 PM 4.3 0 mm 0 22.6 926.03 230 88.1
October 17, 2016 04:01 PM 1.2 0 mm 0 22.8 924.84 283 93.7
October 17, 2016 03:01 PM 6.3 0 mm 0 22.6 924.04 231 97.2
October 17, 2016 02:01 PM 4.2 0 mm 0 23.2 924.17 149 98.6
October 17, 2016 01:01 PM 4.8 0 mm 0 24 924.43 129 99.1
October 17, 2016 12:01 PM 5.9 0 mm 0 24.1 925.37 101 97.4
October 17, 2016 11:03 AM 1.9 0 mm 0 25.2 926.84 163 88.1
October 17, 2016 10:01 AM 4.5 0 mm 0 25.1 925.9 101 93.3
October 17, 2016 09:01 AM 0 0 mm 0 22.8 926.43 0 99.1
October 17, 2016 08:01 AM 4 0 mm 0 22.5 926.03 111 99.4
October 17, 2016 05:04 AM 0 0 mm 0 22.1 924.43 0 99.4
October 17, 2016 04:01 AM 5.5 0 mm 0 22 924.43 111 99.4
October 17, 2016 03:01 AM 1.7 0 mm 0 21.3 924.04 101 99.1
October 17, 2016 02:01 AM 5.5 0 mm 0 21.5 924.3 123 98.9
October 17, 2016 01:01 AM 3.2 0 mm 0 22.1 924.84 114 98.8
October 17, 2016 12:01 AM 3.9 0 mm 0 22.1 924.84 122 98.5
October 16, 2016 10:01 PM 1.8 0 mm 0 21.9 925.63 122 98.9